createdAt,value
2023-02-06T00:00:54.351Z,-5.58
2023-02-06T00:03:22.472Z,-5.57
2023-02-06T00:05:57.492Z,-5.52
2023-02-06T00:08:27.273Z,-5.51
2023-02-06T00:10:55.885Z,-5.46
2023-02-06T00:13:24.076Z,-5.39
2023-02-06T00:15:52.270Z,-5.30
2023-02-06T00:18:20.489Z,-5.22
2023-02-06T00:20:48.689Z,-5.14
2023-02-06T00:23:16.970Z,-5.11
2023-02-06T00:25:46.828Z,-5.07
2023-02-06T00:28:15.056Z,-5.01
2023-02-06T00:30:43.258Z,-4.96
2023-02-06T00:33:11.440Z,-4.93
2023-02-06T00:35:39.576Z,-4.86
2023-02-06T00:38:08.914Z,-4.76
2023-02-06T00:40:37.052Z,-4.79
2023-02-06T00:43:06.603Z,-4.79
2023-02-06T00:45:35.064Z,-4.74
2023-02-06T00:48:03.563Z,-4.70
2023-02-06T00:50:32.038Z,-4.68
2023-02-06T00:53:00.220Z,-4.64
2023-02-06T00:55:28.485Z,-4.57
2023-02-06T00:57:56.702Z,-4.54
2023-02-06T01:00:26.337Z,-4.50
2023-02-06T01:02:54.543Z,-4.47
2023-02-06T01:05:22.994Z,-4.46
2023-02-06T01:07:51.178Z,-4.46
2023-02-06T01:10:19.379Z,-4.40
2023-02-06T01:12:47.597Z,-4.36
2023-02-06T01:15:15.792Z,-4.33
2023-02-06T01:17:45.405Z,-4.29
2023-02-06T01:20:14.397Z,-4.22
2023-02-06T01:22:42.703Z,-4.18
2023-02-06T01:25:13.219Z,-4.16
2023-02-06T01:27:41.404Z,-4.12
2023-02-06T01:30:11.165Z,-4.11
2023-02-06T01:32:39.870Z,-4.04
2023-02-06T01:35:10.207Z,-4.01
2023-02-06T01:37:38.925Z,-3.96
2023-02-06T01:40:09.818Z,-3.92
2023-02-06T01:42:38.080Z,-3.93
2023-02-06T01:45:36.409Z,-3.92
2023-02-06T01:48:05.985Z,-3.95
2023-02-06T01:50:35.815Z,-3.94
2023-02-06T01:53:03.996Z,-3.94
2023-02-06T01:55:32.209Z,-3.88
2023-02-06T01:58:00.642Z,-3.86
2023-02-06T02:00:29.128Z,-3.85
2023-02-06T02:02:57.323Z,-3.82
2023-02-06T02:05:25.502Z,-3.79
2023-02-06T02:08:01.121Z,-3.80
2023-02-06T02:10:30.582Z,-3.76
2023-02-06T02:12:58.872Z,-3.71
2023-02-06T02:15:33.804Z,-3.65
2023-02-06T02:18:05.241Z,-3.60
2023-02-06T02:20:55.710Z,-3.56
2023-02-06T02:23:32.032Z,-3.53
2023-02-06T02:26:26.531Z,-3.53
2023-02-06T02:29:27.590Z,-3.48
2023-02-06T02:32:31.186Z,-3.46
2023-02-06T02:35:39.290Z,-3.46
2023-02-06T02:38:16.279Z,-3.47
2023-02-06T02:40:47.502Z,-3.46
2023-02-06T02:43:23.903Z,-3.44
2023-02-06T02:45:54.816Z,-3.44
2023-02-06T02:48:24.771Z,-3.44
2023-02-06T02:50:54.411Z,-3.44
2023-02-06T02:53:22.801Z,-3.42
2023-02-06T02:55:51.288Z,-3.41
2023-02-06T02:58:22.538Z,-3.37
2023-02-06T03:00:51.983Z,-3.35
2023-02-06T03:03:22.130Z,-3.33
2023-02-06T03:05:57.868Z,-3.30
2023-02-06T03:08:29.292Z,-3.30
2023-02-06T03:11:02.639Z,-3.25
2023-02-06T03:13:32.121Z,-3.22
2023-02-06T03:16:03.661Z,-3.19
2023-02-06T03:18:32.814Z,-3.23
2023-02-06T03:21:02.580Z,-3.20
2023-02-06T03:23:32.599Z,-3.15
2023-02-06T03:26:01.920Z,-3.09
2023-02-06T03:28:40.214Z,-3.06
2023-02-06T03:31:10.190Z,-3.05
2023-02-06T03:33:41.238Z,-3.03
2023-02-06T03:36:17.368Z,-3.01
2023-02-06T03:38:46.252Z,-2.97
2023-02-06T03:41:14.907Z,-2.97
2023-02-06T03:43:43.366Z,-2.96
2023-02-06T03:46:12.635Z,-2.96
2023-02-06T03:48:42.073Z,-2.95
2023-02-06T03:51:13.260Z,-2.96
2023-02-06T03:53:41.412Z,-2.94
2023-02-06T03:56:12.109Z,-2.92
2023-02-06T03:58:40.283Z,-2.89
2023-02-06T04:01:08.547Z,-2.89
2023-02-06T04:03:36.789Z,-2.87
2023-02-06T04:06:05.360Z,-2.83
2023-02-06T04:08:35.024Z,-2.77
2023-02-06T04:11:03.192Z,-2.77
2023-02-06T04:13:31.356Z,-2.76
2023-02-06T04:15:59.578Z,-2.71
2023-02-06T04:18:28.149Z,-2.71
2023-02-06T04:20:56.328Z,-2.72
2023-02-06T04:23:24.483Z,-2.70
2023-02-06T04:25:54.050Z,-2.66
2023-02-06T04:28:22.284Z,-2.67
2023-02-06T04:30:50.596Z,-2.67
2023-02-06T04:33:19.374Z,-2.67
2023-02-06T04:35:48.537Z,-2.63
2023-02-06T04:38:16.695Z,-2.61
2023-02-06T04:40:44.904Z,-2.60
2023-02-06T04:43:14.459Z,-2.54
2023-02-06T04:45:43.030Z,-2.53
2023-02-06T04:48:11.533Z,-2.49
2023-02-06T04:50:39.625Z,-2.52
2023-02-06T04:53:07.841Z,-2.49
2023-02-06T04:55:36.774Z,-2.47
2023-02-06T04:58:05.206Z,-2.47
2023-02-06T05:00:35.061Z,-2.46
2023-02-06T05:03:03.254Z,-2.46
2023-02-06T05:05:31.439Z,-2.45
2023-02-06T05:07:59.604Z,-2.43
2023-02-06T05:10:27.925Z,-2.40
2023-02-06T05:12:57.176Z,-2.37
2023-02-06T05:15:25.625Z,-2.40
2023-02-06T05:17:55.462Z,-2.39
2023-02-06T05:20:23.625Z,-2.39
2023-02-06T05:22:51.846Z,-2.42
2023-02-06T05:25:20.058Z,-2.39
2023-02-06T05:27:48.523Z,-2.40
2023-02-06T05:30:16.820Z,-2.39
2023-02-06T05:32:45.140Z,-2.38
2023-02-06T05:35:14.687Z,-2.39
2023-02-06T05:37:42.830Z,-2.38
2023-02-06T05:40:12.325Z,-2.34
2023-02-06T05:42:40.846Z,-2.32
2023-02-06T05:45:10.247Z,-2.31
2023-02-06T05:47:38.460Z,-2.30
2023-02-06T05:50:07.456Z,-2.28
2023-02-06T05:52:37.084Z,-2.29
2023-02-06T05:55:05.436Z,-2.31
2023-02-06T05:57:33.929Z,-2.28
2023-02-06T06:00:02.432Z,-2.30
2023-02-06T06:02:39.611Z,-2.28
2023-02-06T06:05:08.602Z,-2.24
2023-02-06T06:07:38.134Z,-2.26
2023-02-06T06:10:07.300Z,-2.24
2023-02-06T06:12:35.460Z,-2.23
2023-02-06T06:15:03.660Z,-2.23
2023-02-06T06:17:31.829Z,-2.23
2023-02-06T06:19:59.989Z,-2.24
2023-02-06T06:22:28.197Z,-2.25
2023-02-06T06:24:58.014Z,-2.23
2023-02-06T06:27:26.180Z,-2.22
2023-02-06T06:29:54.397Z,-2.26
2023-02-06T06:32:22.686Z,-2.25
2023-02-06T06:34:50.845Z,-2.25
2023-02-06T06:37:19.052Z,-2.22
2023-02-06T06:39:47.217Z,-2.20
2023-02-06T06:42:16.768Z,-2.20
2023-02-06T06:44:44.899Z,-2.16
2023-02-06T06:47:13.079Z,-2.17
2023-02-06T06:49:41.272Z,-2.14
2023-02-06T06:52:22.973Z,-2.16
2023-02-06T06:54:53.040Z,-2.20
2023-02-06T06:57:22.659Z,-2.19
2023-02-06T06:59:50.849Z,-2.13
2023-02-06T07:02:19.054Z,-2.11
2023-02-06T07:04:47.319Z,-2.12
2023-02-06T07:07:15.633Z,-2.08
2023-02-06T07:09:43.845Z,-2.08
2023-02-06T07:12:12.055Z,-2.10
2023-02-06T07:14:42.547Z,-2.11
2023-02-06T07:17:11.009Z,-2.10
2023-02-06T07:19:39.275Z,-2.05
2023-02-06T07:22:07.423Z,-2.02
2023-02-06T07:24:35.664Z,-2.01
2023-02-06T07:27:03.809Z,-2.04
2023-02-06T07:29:32.009Z,-2.03
2023-02-06T07:32:01.843Z,-1.99
2023-02-06T07:34:29.988Z,-2.00
2023-02-06T07:36:59.751Z,-1.98
2023-02-06T07:39:28.134Z,-1.95
2023-02-06T07:41:56.263Z,-1.97
2023-02-06T07:44:31.725Z,-1.97
2023-02-06T07:47:01.312Z,-1.96
2023-02-06T07:49:29.465Z,-1.93
2023-02-06T07:51:57.645Z,-1.91
2023-02-06T07:54:25.814Z,-1.91
2023-02-06T07:56:53.938Z,-1.89
2023-02-06T07:59:22.453Z,-1.88
2023-02-06T08:01:50.645Z,-1.87
2023-02-06T08:04:20.207Z,-1.90
2023-02-06T08:06:48.604Z,-1.88
2023-02-06T08:09:17.601Z,-1.88
2023-02-06T08:11:49.134Z,-1.85
2023-02-06T08:14:17.300Z,-1.83
2023-02-06T08:16:45.726Z,-1.83
2023-02-06T08:19:13.918Z,-1.82
2023-02-06T08:21:43.509Z,-1.81
2023-02-06T08:24:12.448Z,-1.83
2023-02-06T08:26:41.034Z,-1.81
2023-02-06T08:29:09.196Z,-1.77
2023-02-06T08:31:38.395Z,-1.76
2023-02-06T08:34:06.681Z,-1.75
2023-02-06T08:36:34.997Z,-1.74
2023-02-06T08:39:05.513Z,-1.72
2023-02-06T08:41:37.107Z,-1.66
2023-02-06T08:44:06.543Z,-1.64
2023-02-06T08:46:34.876Z,-1.62
2023-02-06T08:49:04.809Z,-1.64
2023-02-06T08:51:36.827Z,-1.63
2023-02-06T08:54:07.464Z,-1.62
2023-02-06T08:56:36.373Z,-1.61
2023-02-06T08:59:04.578Z,-1.57
2023-02-06T09:01:33.591Z,-1.54
2023-02-06T09:04:03.075Z,-1.55
2023-02-06T09:06:31.390Z,-1.56
2023-02-06T09:08:59.549Z,-1.53
2023-02-06T09:11:29.317Z,-1.55
2023-02-06T09:13:58.413Z,-1.54
2023-02-06T09:16:26.995Z,-1.51
2023-02-06T09:18:55.463Z,-1.47
2023-02-06T09:21:24.392Z,-1.47
2023-02-06T09:23:53.856Z,-1.44
2023-02-06T09:26:23.109Z,-1.43
2023-02-06T09:28:54.429Z,-1.41
2023-02-06T09:31:22.617Z,-1.39
2023-02-06T09:33:51.043Z,-1.36
2023-02-06T09:36:22.201Z,-1.37
2023-02-06T09:38:53.512Z,-1.39
2023-02-06T09:41:25.809Z,-1.37
2023-02-06T09:43:57.727Z,-1.34
2023-02-06T09:46:28.208Z,-1.32
2023-02-06T09:48:56.760Z,-1.28
2023-02-06T09:51:29.062Z,-1.26
2023-02-06T09:54:05.986Z,-1.24
2023-02-06T09:56:37.837Z,-1.21
2023-02-06T09:59:11.895Z,-1.20
2023-02-06T10:01:41.338Z,-1.13
2023-02-06T10:04:35.765Z,-1.13
2023-02-06T10:07:19.985Z,-1.11
2023-02-06T10:09:50.774Z,-1.11
2023-02-06T10:12:20.796Z,-1.07
2023-02-06T10:14:52.907Z,-1.06
2023-02-06T10:17:23.045Z,-1.03
2023-02-06T10:19:52.601Z,-0.98
2023-02-06T10:22:24.298Z,-0.94
2023-02-06T10:24:55.489Z,-0.94
2023-02-06T10:27:23.984Z,-0.94
2023-02-06T10:29:53.632Z,-0.94
2023-02-06T10:32:31.450Z,-0.94
2023-02-06T10:35:11.836Z,-0.92
2023-02-06T10:37:57.364Z,-0.93
2023-02-06T10:40:32.345Z,-0.93
2023-02-06T10:43:02.635Z,-0.90
2023-02-06T10:45:40.693Z,-0.89
2023-02-06T10:48:14.910Z,-0.85
2023-02-06T10:50:45.025Z,-0.83
2023-02-06T10:53:16.185Z,-0.82
2023-02-06T10:55:49.111Z,-0.81
2023-02-06T10:58:18.420Z,-0.79
2023-02-06T11:00:48.048Z,-0.79
2023-02-06T11:03:17.904Z,-0.82
2023-02-06T11:05:46.128Z,-0.81
2023-02-06T11:08:17.520Z,-0.78
2023-02-06T11:10:46.600Z,-0.77
2023-02-06T11:13:16.649Z,-0.71
2023-02-06T11:15:49.136Z,-0.71
2023-02-06T11:18:22.330Z,-0.69
2023-02-06T11:20:50.614Z,-0.68
2023-02-06T11:23:19.912Z,-0.67
2023-02-06T11:25:49.220Z,-0.68
2023-02-06T11:28:20.371Z,-0.68
2023-02-06T11:30:57.750Z,-0.69
2023-02-06T11:33:30.199Z,-0.70
2023-02-06T11:36:00.008Z,-0.72
2023-02-06T11:38:29.550Z,-0.72
2023-02-06T11:41:00.780Z,-0.70
2023-02-06T11:43:30.842Z,-0.69
2023-02-06T11:46:17.234Z,-0.70
2023-02-06T11:48:46.216Z,-0.68
2023-02-06T11:51:14.889Z,-0.69
2023-02-06T11:53:56.111Z,-0.66
2023-02-06T11:56:24.317Z,-0.66
2023-02-06T11:59:04.939Z,-0.66
2023-02-06T12:01:43.368Z,-0.65
2023-02-06T12:04:23.647Z,-0.67
2023-02-06T12:06:54.651Z,-0.68
2023-02-06T12:09:23.079Z,-0.70
2023-02-06T12:11:53.367Z,-0.70
2023-02-06T12:14:23.115Z,-0.71
2023-02-06T12:16:52.788Z,-0.71
2023-02-06T12:19:22.660Z,-0.76
2023-02-06T12:21:51.955Z,-0.79
2023-02-06T12:24:23.766Z,-0.78
2023-02-06T12:26:52.239Z,-0.78
2023-02-06T12:29:22.709Z,-0.77
2023-02-06T12:31:55.427Z,-0.77
2023-02-06T12:34:26.218Z,-0.75
2023-02-06T12:37:00.470Z,-0.78
2023-02-06T12:39:32.750Z,-0.80
2023-02-06T12:42:13.386Z,-0.87
2023-02-06T12:44:43.203Z,-0.86
2023-02-06T12:47:16.909Z,-0.83
2023-02-06T12:49:50.446Z,-0.80
2023-02-06T12:52:20.506Z,-0.76
2023-02-06T12:54:50.969Z,-0.71
2023-02-06T12:57:21.210Z,-0.65
2023-02-06T13:00:28.297Z,-0.62
2023-02-06T13:03:10.197Z,-0.58
2023-02-06T13:05:40.738Z,-0.55
2023-02-06T13:08:10.467Z,-0.53
2023-02-06T13:10:38.892Z,-0.53
2023-02-06T13:13:07.492Z,-0.53
2023-02-06T13:15:37.496Z,-0.56
2023-02-06T13:18:38.807Z,-0.57
2023-02-06T13:21:18.816Z,-0.55
2023-02-06T13:23:51.374Z,-0.61
2023-02-06T13:26:19.967Z,-0.63
2023-02-06T13:29:22.409Z,-0.62
2023-02-06T13:31:50.708Z,-0.61
2023-02-06T13:34:19.033Z,-0.64
2023-02-06T13:36:54.845Z,-0.64
2023-02-06T13:39:29.063Z,-0.62
2023-02-06T13:41:57.876Z,-0.62
2023-02-06T13:44:28.524Z,-0.62
2023-02-06T13:47:26.274Z,-0.66
2023-02-06T13:50:08.845Z,-0.62
2023-02-06T13:52:41.179Z,-0.63
2023-02-06T13:55:17.538Z,-0.64
2023-02-06T13:58:07.617Z,-0.62
2023-02-06T14:00:39.239Z,-0.63
2023-02-06T14:03:08.697Z,-0.63
2023-02-06T14:05:42.641Z,-0.64
2023-02-06T14:08:18.653Z,-0.69
2023-02-06T14:11:21.043Z,-0.71
2023-02-06T14:14:01.126Z,-0.71
2023-02-06T14:16:36.333Z,-0.69
2023-02-06T14:19:06.079Z,-0.65
2023-02-06T14:21:44.397Z,-0.67
2023-02-06T14:24:24.334Z,-0.68
2023-02-06T14:26:56.239Z,-0.66
2023-02-06T14:29:30.689Z,-0.66
2023-02-06T14:32:23.357Z,-0.69
2023-02-06T14:35:00.496Z,-0.71
2023-02-06T14:37:43.837Z,-0.71
2023-02-06T14:40:20.862Z,-0.72
2023-02-06T14:42:49.045Z,-0.72
2023-02-06T14:45:31.924Z,-0.71
2023-02-06T14:48:03.309Z,-0.67
2023-02-06T14:50:32.473Z,-0.67
2023-02-06T14:53:03.956Z,-0.67
2023-02-06T14:55:37.864Z,-0.62
2023-02-06T14:58:07.078Z,-0.64
2023-02-06T15:00:35.601Z,-0.65
2023-02-06T15:03:06.188Z,-0.64
2023-02-06T15:05:35.705Z,-0.69
2023-02-06T15:08:05.528Z,-0.68
2023-02-06T15:10:34.730Z,-0.64
2023-02-06T15:13:04.678Z,-0.70
2023-02-06T15:15:33.747Z,-0.70
2023-02-06T15:18:04.635Z,-0.72
2023-02-06T15:20:36.416Z,-0.74
2023-02-06T15:23:17.161Z,-0.73
2023-02-06T15:25:52.878Z,-0.75
2023-02-06T15:28:30.172Z,-0.80
2023-02-06T15:30:59.047Z,-0.81
2023-02-06T15:33:28.832Z,-0.81
2023-02-06T15:35:58.182Z,-0.85
2023-02-06T15:38:26.795Z,-0.87
2023-02-06T15:40:56.381Z,-0.93
2023-02-06T15:43:26.348Z,-0.91
2023-02-06T15:45:56.203Z,-0.97
2023-02-06T15:48:27.612Z,-0.98
2023-02-06T15:50:57.303Z,-1.00
2023-02-06T15:53:34.130Z,-1.03
2023-02-06T15:56:02.872Z,-1.06
2023-02-06T15:58:33.216Z,-1.06
2023-02-06T16:01:01.555Z,-1.11
2023-02-06T16:03:30.765Z,-1.16
2023-02-06T16:05:59.023Z,-1.13
2023-02-06T16:08:28.976Z,-1.16
2023-02-06T16:10:59.260Z,-1.20
2023-02-06T16:13:33.336Z,-1.21
2023-02-06T16:16:18.552Z,-1.19
2023-02-06T16:18:47.451Z,-1.23
2023-02-06T16:21:24.481Z,-1.27
2023-02-06T16:23:54.478Z,-1.27
2023-02-06T16:26:24.002Z,-1.31
2023-02-06T16:28:57.820Z,-1.34
2023-02-06T16:31:27.786Z,-1.41
2023-02-06T16:33:56.399Z,-1.44
2023-02-06T16:36:24.913Z,-1.45
2023-02-06T16:39:03.607Z,-1.46
2023-02-06T16:41:35.036Z,-1.50
2023-02-06T16:44:03.518Z,-1.53
2023-02-06T16:46:33.236Z,-1.51
2023-02-06T16:49:01.477Z,-1.57
2023-02-06T16:51:30.191Z,-1.59
2023-02-06T16:53:58.633Z,-1.58
2023-02-06T16:56:26.783Z,-1.61
2023-02-06T16:58:56.228Z,-1.59
2023-02-06T17:01:26.564Z,-1.60
2023-02-06T17:03:56.297Z,-1.61
2023-02-06T17:06:26.084Z,-1.66
2023-02-06T17:08:54.841Z,-1.68
2023-02-06T17:11:23.039Z,-1.68
2023-02-06T17:13:51.383Z,-1.71
2023-02-06T17:16:22.316Z,-1.70
2023-02-06T17:18:50.530Z,-1.68
2023-02-06T17:21:22.364Z,-1.67
2023-02-06T17:23:51.228Z,-1.71
2023-02-06T17:26:21.891Z,-1.69
2023-02-06T17:28:50.235Z,-1.71
2023-02-06T17:31:18.691Z,-1.73
2023-02-06T17:33:47.382Z,-1.75
2023-02-06T17:36:17.285Z,-1.74
2023-02-06T17:38:46.878Z,-1.76
2023-02-06T17:41:15.004Z,-1.70
2023-02-06T17:43:43.186Z,-1.70
2023-02-06T17:46:12.079Z,-1.70
2023-02-06T17:48:42.772Z,-1.70
2023-02-06T17:51:11.053Z,-1.74
2023-02-06T17:53:39.282Z,-1.75
2023-02-06T17:56:09.687Z,-1.72
2023-02-06T17:58:37.898Z,-1.73
2023-02-06T18:01:06.741Z,-1.71
2023-02-06T18:03:35.403Z,-1.72
2023-02-06T18:06:03.653Z,-1.69
2023-02-06T18:08:31.775Z,-1.66
2023-02-06T18:11:00.093Z,-1.65
2023-02-06T18:13:29.936Z,-1.65
2023-02-06T18:15:58.565Z,-1.66
2023-02-06T18:18:27.229Z,-1.62
2023-02-06T18:20:55.421Z,-1.63
2023-02-06T18:23:23.648Z,-1.68
2023-02-06T18:25:51.855Z,-1.69
2023-02-06T18:28:20.448Z,-1.71
2023-02-06T18:30:50.131Z,-1.68
2023-02-06T18:33:18.342Z,-1.68
2023-02-06T18:35:46.697Z,-1.70
2023-02-06T18:38:15.341Z,-1.67
2023-02-06T18:40:45.612Z,-1.70
2023-02-06T18:43:12.882Z,-1.73
2023-02-06T18:45:41.257Z,-1.73
2023-02-06T18:48:13.046Z,-1.78
2023-02-06T18:50:42.873Z,-1.90
2023-02-06T18:53:11.059Z,-1.96
2023-02-06T18:55:40.538Z,-1.93
2023-02-06T18:58:08.756Z,-1.96
2023-02-06T19:00:42.222Z,-1.97
2023-02-06T19:03:11.861Z,-2.03
2023-02-06T19:05:40.086Z,-2.03
2023-02-06T19:08:08.533Z,-2.06
2023-02-06T19:10:36.899Z,-2.08
2023-02-06T19:13:05.793Z,-2.09
2023-02-06T19:15:36.020Z,-2.20
2023-02-06T19:18:07.564Z,-2.31
2023-02-06T19:20:37.603Z,-2.34
2023-02-06T19:23:06.222Z,-2.44
2023-02-06T19:25:34.498Z,-2.47
2023-02-06T19:28:02.895Z,-2.50
2023-02-06T19:30:32.338Z,-2.57
2023-02-06T19:33:00.712Z,-2.57
2023-02-06T19:35:29.197Z,-2.61
2023-02-06T19:38:00.560Z,-2.60
2023-02-06T19:40:28.817Z,-2.62
2023-02-06T19:42:57.083Z,-2.64
2023-02-06T19:45:25.487Z,-2.65
2023-02-06T19:47:53.828Z,-2.58
2023-02-06T19:50:22.248Z,-2.52
2023-02-06T19:52:51.664Z,-2.50
2023-02-06T19:55:21.440Z,-2.46
2023-02-06T19:57:49.722Z,-2.43
2023-02-06T20:00:18.179Z,-2.42
2023-02-06T20:02:46.745Z,-2.47
2023-02-06T20:05:14.998Z,-2.43
2023-02-06T20:07:43.218Z,-2.44
2023-02-06T20:10:11.455Z,-2.43
2023-02-06T20:12:41.103Z,-2.43
2023-02-06T20:15:10.292Z,-2.43
2023-02-06T20:17:38.492Z,-2.44
2023-02-06T20:20:07.990Z,-2.43
2023-02-06T20:22:36.420Z,-2.49
2023-02-06T20:25:04.591Z,-2.53
2023-02-06T20:27:32.799Z,-2.51
2023-02-06T20:30:02.707Z,-2.60
2023-02-06T20:32:31.039Z,-2.58
2023-02-06T20:34:59.673Z,-2.59
2023-02-06T20:37:27.840Z,-2.68
2023-02-06T20:39:56.126Z,-2.72
2023-02-06T20:42:27.294Z,-2.73
2023-02-06T20:44:55.988Z,-2.73
2023-02-06T20:47:26.287Z,-2.68
2023-02-06T20:49:54.500Z,-2.69
2023-02-06T20:52:22.653Z,-2.80
2023-02-06T20:54:50.826Z,-2.88
2023-02-06T20:57:19.299Z,-2.84
2023-02-06T20:59:47.710Z,-2.91
2023-02-06T21:02:15.989Z,-3.00
2023-02-06T21:04:45.676Z,-3.00
2023-02-06T21:07:13.909Z,-3.09
2023-02-06T21:09:42.462Z,-3.05
2023-02-06T21:12:10.796Z,-2.98
2023-02-06T21:14:39.100Z,-2.93
2023-02-06T21:17:07.294Z,-3.05
2023-02-06T21:19:35.494Z,-3.16
2023-02-06T21:22:05.257Z,-3.21
2023-02-06T21:24:33.816Z,-3.23
2023-02-06T21:27:01.967Z,-3.28
2023-02-06T21:29:30.237Z,-3.28
2023-02-06T21:32:12.621Z,-3.43
2023-02-06T21:34:41.822Z,-3.66
2023-02-06T21:37:11.756Z,-3.69
2023-02-06T21:39:41.058Z,-3.69
2023-02-06T21:42:09.315Z,-3.66
2023-02-06T21:44:38.441Z,-3.60
2023-02-06T21:47:06.744Z,-3.50
2023-02-06T21:49:35.194Z,-3.44
2023-02-06T21:52:03.515Z,-3.41
2023-02-06T21:54:33.177Z,-3.40
2023-02-06T21:57:01.514Z,-3.40
2023-02-06T21:59:32.760Z,-3.55
2023-02-06T22:02:01.027Z,-3.54
2023-02-06T22:04:29.356Z,-3.60
2023-02-06T22:06:57.953Z,-3.68
2023-02-06T22:09:26.226Z,-3.70
2023-02-06T22:11:55.958Z,-3.75
2023-02-06T22:14:24.284Z,-3.78
2023-02-06T22:16:52.550Z,-3.86
2023-02-06T22:19:21.223Z,-3.99
2023-02-06T22:21:49.514Z,-4.03
2023-02-06T22:24:17.823Z,-4.15
2023-02-06T22:26:46.047Z,-4.35
2023-02-06T22:29:16.433Z,-4.44
2023-02-06T22:31:44.764Z,-4.35
2023-02-06T22:34:16.592Z,-4.35
2023-02-06T22:36:45.648Z,-4.33
2023-02-06T22:39:14.426Z,-4.42
2023-02-06T22:41:43.712Z,-4.47
2023-02-06T22:44:12.559Z,-4.47
2023-02-06T22:46:42.204Z,-4.58
2023-02-06T22:49:10.823Z,-4.68
2023-02-06T22:51:39.120Z,-4.69
2023-02-06T22:54:09.411Z,-4.75
2023-02-06T22:56:38.055Z,-4.78
2023-02-06T22:59:07.309Z,-4.91
2023-02-06T23:01:36.962Z,-5.00
2023-02-06T23:04:08.167Z,-5.09
2023-02-06T23:06:36.512Z,-5.24
2023-02-06T23:09:05.638Z,-5.34
2023-02-06T23:11:33.972Z,-5.41
2023-02-06T23:14:03.396Z,-5.48
2023-02-06T23:16:32.584Z,-5.63
2023-02-06T23:19:01.861Z,-5.69
2023-02-06T23:21:31.428Z,-5.75
2023-02-06T23:24:00.777Z,-5.85
2023-02-06T23:26:29.396Z,-5.91
2023-02-06T23:28:58.518Z,-5.96
2023-02-06T23:31:26.868Z,-6.05
2023-02-06T23:33:55.365Z,-6.15
2023-02-06T23:36:25.315Z,-6.22
2023-02-06T23:38:54.900Z,-6.40
2023-02-06T23:41:23.902Z,-6.51
2023-02-06T23:43:52.660Z,-6.62
2023-02-06T23:46:21.029Z,-6.67
2023-02-06T23:48:49.293Z,-6.73
2023-02-06T23:51:17.566Z,-6.82
2023-02-06T23:53:45.780Z,-6.88
2023-02-06T23:56:16.350Z,-6.95
2023-02-06T23:58:44.510Z,-7.01
